Cresson, Texas
Current Conditions -  °F | °C
As of 6:15 PM on Wednesday 22 Oct 2014 (Local Time) from KGDJ Reporting Station
Clear Clear  
Wind Chill: 79°   Ceiling: Unl
Heat Index: 80°   Visibility: 10mi
Dew Point: 58°   Wind: 7mph
Humidity: 50%   Direction: 90°E
Pressure: 30.08"   Gusts: NA
Location:  32.53°N, 97.62°W
Report Text: KGDJ 222315Z AUTO 09006KT 10SM CLR 26/15 A3008 RMK AO2 T02590146
Loading
Personal Weather Stations






























Interactive Weather Map
Tropical Storm Tracking
New forecast layout! Learn more

10-Day Weather Forecast

Advertisements
Track Severe Weather on mobile